sensor_id;sensor_type;location;lat;lon;timestamp;P1;durP1;ratioP1;P2;durP2;ratioP2
38787;SDS011;24536;45.488;12.238;2023-05-07T00:00:36;5.18;;;3.67;;
38787;SDS011;24536;45.488;12.238;2023-05-07T00:03:02;5.57;;;4.18;;
38787;SDS011;24536;45.488;12.238;2023-05-07T00:05:28;6.65;;;4.32;;
38787;SDS011;24536;45.488;12.238;2023-05-07T00:07:54;7.07;;;4.45;;
38787;SDS011;24536;45.488;12.238;2023-05-07T00:10:19;5.30;;;4.47;;
38787;SDS011;24536;45.488;12.238;2023-05-07T00:12:45;5.45;;;4.25;;
38787;SDS011;24536;45.488;12.238;2023-05-07T00:15:11;5.80;;;4.15;;
38787;SDS011;24536;45.488;12.238;2023-05-07T00:17:37;5.22;;;4.20;;
38787;SDS011;24536;45.488;12.238;2023-05-07T00:20:03;6.57;;;4.38;;
38787;SDS011;24536;45.488;12.238;2023-05-07T00:22:30;6.03;;;4.90;;
38787;SDS011;24536;45.488;12.238;2023-05-07T00:24:57;5.03;;;4.15;;
38787;SDS011;24536;45.488;12.238;2023-05-07T00:27:23;6.03;;;4.07;;
38787;SDS011;24536;45.488;12.238;2023-05-07T00:29:49;8.10;;;4.88;;
38787;SDS011;24536;45.488;12.238;2023-05-07T00:32:15;7.78;;;4.28;;
38787;SDS011;24536;45.488;12.238;2023-05-07T00:34:40;5.65;;;4.22;;
38787;SDS011;24536;45.488;12.238;2023-05-07T00:37:06;5.65;;;4.20;;
38787;SDS011;24536;45.488;12.238;2023-05-07T00:39:36;5.20;;;3.85;;
38787;SDS011;24536;45.488;12.238;2023-05-07T00:42:02;6.88;;;4.35;;
38787;SDS011;24536;45.488;12.238;2023-05-07T00:44:28;5.47;;;4.50;;
38787;SDS011;24536;45.488;12.238;2023-05-07T00:46:55;5.38;;;4.43;;
38787;SDS011;24536;45.488;12.238;2023-05-07T00:49:27;8.07;;;4.68;;
38787;SDS011;24536;45.488;12.238;2023-05-07T00:52:03;5.93;;;4.50;;
38787;SDS011;24536;45.488;12.238;2023-05-07T00:54:30;7.25;;;4.65;;
38787;SDS011;24536;45.488;12.238;2023-05-07T00:56:56;6.68;;;5.05;;
38787;SDS011;24536;45.488;12.238;2023-05-07T00:59:22;6.45;;;5.05;;
38787;SDS011;24536;45.488;12.238;2023-05-07T01:01:48;7.53;;;5.32;;
38787;SDS011;24536;45.488;12.238;2023-05-07T01:04:14;6.13;;;4.60;;
38787;SDS011;24536;45.488;12.238;2023-05-07T01:06:40;6.93;;;4.78;;
38787;SDS011;24536;45.488;12.238;2023-05-07T01:09:06;6.05;;;4.93;;
38787;SDS011;24536;45.488;12.238;2023-05-07T01:11:32;5.28;;;4.13;;
38787;SDS011;24536;45.488;12.238;2023-05-07T01:13:58;8.25;;;5.05;;
38787;SDS011;24536;45.488;12.238;2023-05-07T01:16:24;7.57;;;5.30;;
38787;SDS011;24536;45.488;12.238;2023-05-07T01:18:50;6.22;;;4.63;;
38787;SDS011;24536;45.488;12.238;2023-05-07T01:21:16;6.82;;;5.30;;
38787;SDS011;24536;45.488;12.238;2023-05-07T01:23:44;8.55;;;5.25;;
38787;SDS011;24536;45.488;12.238;2023-05-07T01:26:11;6.90;;;4.88;;
38787;SDS011;24536;45.488;12.238;2023-05-07T01:28:37;6.72;;;5.00;;
38787;SDS011;24536;45.488;12.238;2023-05-07T01:31:03;6.53;;;4.68;;
38787;SDS011;24536;45.488;12.238;2023-05-07T01:33:32;6.88;;;5.28;;
38787;SDS011;24536;45.488;12.238;2023-05-07T01:36:00;8.07;;;5.43;;
38787;SDS011;24536;45.488;12.238;2023-05-07T01:38:28;7.97;;;5.40;;
38787;SDS011;24536;45.488;12.238;2023-05-07T01:40:55;7.45;;;5.10;;
38787;SDS011;24536;45.488;12.238;2023-05-07T01:43:21;13.57;;;6.00;;
38787;SDS011;24536;45.488;12.238;2023-05-07T01:45:46;8.20;;;6.15;;
38787;SDS011;24536;45.488;12.238;2023-05-07T01:48:14;7.88;;;5.75;;
38787;SDS011;24536;45.488;12.238;2023-05-07T01:50:40;7.78;;;6.15;;
38787;SDS011;24536;45.488;12.238;2023-05-07T01:53:07;8.63;;;6.57;;
38787;SDS011;24536;45.488;12.238;2023-05-07T01:55:33;9.93;;;7.45;;
38787;SDS011;24536;45.488;12.238;2023-05-07T01:57:59;8.57;;;7.22;;
38787;SDS011;24536;45.488;12.238;2023-05-07T02:00:24;9.57;;;7.18;;
38787;SDS011;24536;45.488;12.238;2023-05-07T02:02:50;10.80;;;8.43;;
38787;SDS011;24536;45.488;12.238;2023-05-07T02:05:17;11.73;;;8.35;;
38787;SDS011;24536;45.488;12.238;2023-05-07T02:07:43;7.78;;;6.88;;
38787;SDS011;24536;45.488;12.238;2023-05-07T02:10:09;10.18;;;7.20;;
38787;SDS011;24536;45.488;12.238;2023-05-07T02:12:35;11.35;;;7.75;;
38787;SDS011;24536;45.488;12.238;2023-05-07T02:15:00;8.50;;;7.60;;
38787;SDS011;24536;45.488;12.238;2023-05-07T02:17:26;10.40;;;8.10;;
38787;SDS011;24536;45.488;12.238;2023-05-07T02:19:52;13.82;;;8.25;;
38787;SDS011;24536;45.488;12.238;2023-05-07T02:22:18;10.52;;;9.05;;
38787;SDS011;24536;45.488;12.238;2023-05-07T02:24:43;11.88;;;8.80;;
38787;SDS011;24536;45.488;12.238;2023-05-07T02:27:09;11.98;;;8.23;;
38787;SDS011;24536;45.488;12.238;2023-05-07T02:29:35;10.73;;;7.93;;
38787;SDS011;24536;45.488;12.238;2023-05-07T02:32:00;10.57;;;8.90;;
38787;SDS011;24536;45.488;12.238;2023-05-07T02:34:26;10.50;;;9.00;;
38787;SDS011;24536;45.488;12.238;2023-05-07T02:36:52;10.27;;;8.45;;
38787;SDS011;24536;45.488;12.238;2023-05-07T02:39:17;13.25;;;8.88;;
38787;SDS011;24536;45.488;12.238;2023-05-07T02:41:43;9.73;;;8.25;;
38787;SDS011;24536;45.488;12.238;2023-05-07T02:44:09;13.10;;;9.48;;
38787;SDS011;24536;45.488;12.238;2023-05-07T02:46:34;13.18;;;9.38;;
38787;SDS011;24536;45.488;12.238;2023-05-07T02:49:00;11.45;;;9.60;;
38787;SDS011;24536;45.488;12.238;2023-05-07T02:51:25;13.77;;;10.23;;
38787;SDS011;24536;45.488;12.238;2023-05-07T02:53:52;13.23;;;9.50;;
38787;SDS011;24536;45.488;12.238;2023-05-07T02:56:17;12.13;;;9.35;;
38787;SDS011;24536;45.488;12.238;2023-05-07T02:58:43;11.98;;;9.25;;
38787;SDS011;24536;45.488;12.238;2023-05-07T03:01:09;12.98;;;9.15;;
38787;SDS011;24536;45.488;12.238;2023-05-07T03:03:36;11.95;;;9.43;;
38787;SDS011;24536;45.488;12.238;2023-05-07T03:06:01;12.85;;;9.73;;
38787;SDS011;24536;45.488;12.238;2023-05-07T03:08:27;12.13;;;8.77;;
38787;SDS011;24536;45.488;12.238;2023-05-07T03:10:53;11.25;;;9.82;;
38787;SDS011;24536;45.488;12.238;2023-05-07T03:13:19;12.35;;;9.77;;
38787;SDS011;24536;45.488;12.238;2023-05-07T03:15:44;12.85;;;9.23;;
38787;SDS011;24536;45.488;12.238;2023-05-07T03:18:10;12.63;;;10.15;;
38787;SDS011;24536;45.488;12.238;2023-05-07T03:20:36;11.45;;;8.90;;
38787;SDS011;24536;45.488;12.238;2023-05-07T03:23:01;14.23;;;10.18;;
38787;SDS011;24536;45.488;12.238;2023-05-07T03:25:27;12.23;;;10.07;;
38787;SDS011;24536;45.488;12.238;2023-05-07T03:27:55;13.48;;;10.27;;
38787;SDS011;24536;45.488;12.238;2023-05-07T03:30:21;13.55;;;9.98;;
38787;SDS011;24536;45.488;12.238;2023-05-07T03:32:46;12.57;;;10.35;;
38787;SDS011;24536;45.488;12.238;2023-05-07T03:35:12;13.43;;;10.90;;
38787;SDS011;24536;45.488;12.238;2023-05-07T03:37:38;13.27;;;10.32;;
38787;SDS011;24536;45.488;12.238;2023-05-07T03:40:04;10.98;;;9.48;;
38787;SDS011;24536;45.488;12.238;2023-05-07T03:42:30;13.70;;;9.93;;
38787;SDS011;24536;45.488;12.238;2023-05-07T03:44:56;10.32;;;9.07;;
38787;SDS011;24536;45.488;12.238;2023-05-07T03:47:22;11.40;;;9.35;;
38787;SDS011;24536;45.488;12.238;2023-05-07T03:49:48;13.35;;;10.50;;
38787;SDS011;24536;45.488;12.238;2023-05-07T03:52:15;11.40;;;9.32;;
38787;SDS011;24536;45.488;12.238;2023-05-07T03:54:41;11.52;;;9.57;;
38787;SDS011;24536;45.488;12.238;2023-05-07T03:57:06;10.98;;;9.10;;
38787;SDS011;24536;45.488;12.238;2023-05-07T03:59:32;11.43;;;9.07;;
38787;SDS011;24536;45.488;12.238;2023-05-07T04:01:57;12.57;;;9.82;;
38787;SDS011;24536;45.488;12.238;2023-05-07T04:04:23;11.20;;;9.90;;
38787;SDS011;24536;45.488;12.238;2023-05-07T04:06:49;11.38;;;9.40;;
38787;SDS011;24536;45.488;12.238;2023-05-07T04:09:14;10.10;;;8.88;;
38787;SDS011;24536;45.488;12.238;2023-05-07T04:11:40;10.38;;;9.27;;
38787;SDS011;24536;45.488;12.238;2023-05-07T04:14:06;11.75;;;9.15;;
38787;SDS011;24536;45.488;12.238;2023-05-07T04:16:31;11.10;;;9.85;;
38787;SDS011;24536;45.488;12.238;2023-05-07T04:18:57;16.17;;;9.85;;
38787;SDS011;24536;45.488;12.238;2023-05-07T04:21:23;11.07;;;9.25;;
38787;SDS011;24536;45.488;12.238;2023-05-07T04:23:49;9.20;;;8.18;;
38787;SDS011;24536;45.488;12.238;2023-05-07T04:26:15;11.82;;;9.55;;
38787;SDS011;24536;45.488;12.238;2023-05-07T04:28:40;11.48;;;9.65;;
38787;SDS011;24536;45.488;12.238;2023-05-07T04:31:06;11.25;;;9.02;;
38787;SDS011;24536;45.488;12.238;2023-05-07T04:33:32;15.10;;;9.93;;
38787;SDS011;24536;45.488;12.238;2023-05-07T04:35:58;10.63;;;9.50;;
38787;SDS011;24536;45.488;12.238;2023-05-07T04:38:28;13.23;;;10.40;;
38787;SDS011;24536;45.488;12.238;2023-05-07T04:40:55;12.18;;;10.38;;
38787;SDS011;24536;45.488;12.238;2023-05-07T04:43:22;13.35;;;10.60;;
38787;SDS011;24536;45.488;12.238;2023-05-07T04:45:47;11.10;;;9.52;;
38787;SDS011;24536;45.488;12.238;2023-05-07T04:48:15;13.02;;;9.77;;
38787;SDS011;24536;45.488;12.238;2023-05-07T04:50:44;9.85;;;8.77;;
38787;SDS011;24536;45.488;12.238;2023-05-07T04:53:12;12.75;;;9.00;;
38787;SDS011;24536;45.488;12.238;2023-05-07T04:55:37;11.43;;;9.80;;
38787;SDS011;24536;45.488;12.238;2023-05-07T04:58:03;11.68;;;9.02;;
38787;SDS011;24536;45.488;12.238;2023-05-07T05:00:30;10.43;;;8.70;;
38787;SDS011;24536;45.488;12.238;2023-05-07T05:02:55;13.05;;;8.88;;
38787;SDS011;24536;45.488;12.238;2023-05-07T05:05:21;12.40;;;9.20;;
38787;SDS011;24536;45.488;12.238;2023-05-07T05:07:46;12.30;;;9.00;;
38787;SDS011;24536;45.488;12.238;2023-05-07T05:10:12;10.88;;;9.05;;
38787;SDS011;24536;45.488;12.238;2023-05-07T05:12:38;9.70;;;8.50;;
38787;SDS011;24536;45.488;12.238;2023-05-07T05:15:04;10.10;;;8.82;;
38787;SDS011;24536;45.488;12.238;2023-05-07T05:17:31;11.65;;;9.60;;
38787;SDS011;24536;45.488;12.238;2023-05-07T05:19:59;10.77;;;8.95;;
38787;SDS011;24536;45.488;12.238;2023-05-07T05:22:25;13.18;;;9.02;;
38787;SDS011;24536;45.488;12.238;2023-05-07T05:24:50;11.38;;;9.23;;
38787;SDS011;24536;45.488;12.238;2023-05-07T05:27:16;11.48;;;9.07;;
38787;SDS011;24536;45.488;12.238;2023-05-07T05:29:42;9.38;;;8.05;;
38787;SDS011;24536;45.488;12.238;2023-05-07T05:32:07;9.75;;;8.57;;
38787;SDS011;24536;45.488;12.238;2023-05-07T05:34:33;12.18;;;9.43;;
38787;SDS011;24536;45.488;12.238;2023-05-07T05:36:59;10.40;;;9.30;;
38787;SDS011;24536;45.488;12.238;2023-05-07T05:39:24;12.23;;;9.20;;
38787;SDS011;24536;45.488;12.238;2023-05-07T05:41:50;10.20;;;8.20;;
38787;SDS011;24536;45.488;12.238;2023-05-07T05:44:16;9.38;;;8.27;;
38787;SDS011;24536;45.488;12.238;2023-05-07T05:46:41;10.48;;;8.25;;
38787;SDS011;24536;45.488;12.238;2023-05-07T05:49:07;11.32;;;8.43;;
38787;SDS011;24536;45.488;12.238;2023-05-07T05:51:33;8.60;;;7.63;;
38787;SDS011;24536;45.488;12.238;2023-05-07T05:53:59;9.18;;;7.57;;
38787;SDS011;24536;45.488;12.238;2023-05-07T05:56:24;10.05;;;8.85;;
38787;SDS011;24536;45.488;12.238;2023-05-07T05:58:51;8.13;;;6.88;;
38787;SDS011;24536;45.488;12.238;2023-05-07T06:01:17;7.90;;;6.63;;
38787;SDS011;24536;45.488;12.238;2023-05-07T06:03:43;8.00;;;7.07;;
38787;SDS011;24536;45.488;12.238;2023-05-07T06:06:09;8.52;;;6.47;;
38787;SDS011;24536;45.488;12.238;2023-05-07T06:08:35;10.50;;;6.28;;
38787;SDS011;24536;45.488;12.238;2023-05-07T06:11:01;7.85;;;5.68;;
38787;SDS011;24536;45.488;12.238;2023-05-07T06:13:27;6.28;;;5.50;;
38787;SDS011;24536;45.488;12.238;2023-05-07T06:15:53;5.57;;;4.72;;
38787;SDS011;24536;45.488;12.238;2023-05-07T06:18:18;5.05;;;4.32;;
38787;SDS011;24536;45.488;12.238;2023-05-07T06:20:44;5.43;;;3.83;;
38787;SDS011;24536;45.488;12.238;2023-05-07T06:23:09;4.68;;;3.45;;
38787;SDS011;24536;45.488;12.238;2023-05-07T06:25:35;4.55;;;3.22;;
38787;SDS011;24536;45.488;12.238;2023-05-07T06:28:01;4.05;;;3.50;;
38787;SDS011;24536;45.488;12.238;2023-05-07T06:30:26;5.40;;;3.63;;
38787;SDS011;24536;45.488;12.238;2023-05-07T06:32:52;5.30;;;3.40;;
38787;SDS011;24536;45.488;12.238;2023-05-07T06:35:18;3.13;;;2.83;;
38787;SDS011;24536;45.488;12.238;2023-05-07T06:37:44;3.70;;;2.53;;
38787;SDS011;24536;45.488;12.238;2023-05-07T06:40:10;3.50;;;2.75;;
38787;SDS011;24536;45.488;12.238;2023-05-07T06:42:36;3.25;;;2.47;;
38787;SDS011;24536;45.488;12.238;2023-05-07T06:45:02;4.70;;;2.58;;
38787;SDS011;24536;45.488;12.238;2023-05-07T06:47:28;2.80;;;2.38;;
38787;SDS011;24536;45.488;12.238;2023-05-07T06:49:54;2.40;;;2.20;;
38787;SDS011;24536;45.488;12.238;2023-05-07T06:52:20;2.55;;;2.08;;
38787;SDS011;24536;45.488;12.238;2023-05-07T06:54:45;2.70;;;2.28;;
38787;SDS011;24536;45.488;12.238;2023-05-07T06:57:11;3.45;;;2.33;;
38787;SDS011;24536;45.488;12.238;2023-05-07T06:59:37;2.35;;;2.08;;
38787;SDS011;24536;45.488;12.238;2023-05-07T07:02:02;6.65;;;2.30;;
38787;SDS011;24536;45.488;12.238;2023-05-07T07:04:31;4.13;;;2.50;;
38787;SDS011;24536;45.488;12.238;2023-05-07T07:06:57;3.25;;;2.33;;
38787;SDS011;24536;45.488;12.238;2023-05-07T07:09:22;4.88;;;2.90;;
38787;SDS011;24536;45.488;12.238;2023-05-07T07:11:48;4.38;;;2.15;;
38787;SDS011;24536;45.488;12.238;2023-05-07T07:14:14;3.38;;;2.17;;
38787;SDS011;24536;45.488;12.238;2023-05-07T07:16:40;3.80;;;2.10;;
38787;SDS011;24536;45.488;12.238;2023-05-07T07:19:05;3.90;;;2.67;;
38787;SDS011;24536;45.488;12.238;2023-05-07T07:21:31;5.07;;;3.20;;
38787;SDS011;24536;45.488;12.238;2023-05-07T07:23:57;3.28;;;2.38;;
38787;SDS011;24536;45.488;12.238;2023-05-07T07:26:22;4.03;;;2.90;;
38787;SDS011;24536;45.488;12.238;2023-05-07T07:28:48;4.60;;;2.40;;
38787;SDS011;24536;45.488;12.238;2023-05-07T07:31:14;3.47;;;2.42;;
38787;SDS011;24536;45.488;12.238;2023-05-07T07:33:40;3.20;;;2.40;;
38787;SDS011;24536;45.488;12.238;2023-05-07T07:36:06;3.15;;;2.40;;
38787;SDS011;24536;45.488;12.238;2023-05-07T07:38:32;4.63;;;2.47;;
38787;SDS011;24536;45.488;12.238;2023-05-07T07:40:58;4.07;;;2.55;;
38787;SDS011;24536;45.488;12.238;2023-05-07T07:43:23;2.25;;;1.80;;
38787;SDS011;24536;45.488;12.238;2023-05-07T07:45:49;2.70;;;1.92;;
38787;SDS011;24536;45.488;12.238;2023-05-07T07:48:15;2.50;;;1.80;;
38787;SDS011;24536;45.488;12.238;2023-05-07T07:50:40;2.45;;;1.73;;
38787;SDS011;24536;45.488;12.238;2023-05-07T07:53:06;2.10;;;1.50;;
38787;SDS011;24536;45.488;12.238;2023-05-07T07:55:32;2.50;;;1.60;;
38787;SDS011;24536;45.488;12.238;2023-05-07T07:58:02;5.25;;;1.88;;
38787;SDS011;24536;45.488;12.238;2023-05-07T08:00:28;2.40;;;2.10;;
38787;SDS011;24536;45.488;12.238;2023-05-07T08:02:53;4.57;;;2.13;;
38787;SDS011;24536;45.488;12.238;2023-05-07T08:05:19;3.10;;;2.13;;
38787;SDS011;24536;45.488;12.238;2023-05-07T08:07:45;2.47;;;1.60;;
38787;SDS011;24536;45.488;12.238;2023-05-07T08:10:11;2.85;;;1.80;;
38787;SDS011;24536;45.488;12.238;2023-05-07T08:12:37;2.00;;;1.75;;
38787;SDS011;24536;45.488;12.238;2023-05-07T08:15:02;2.08;;;1.88;;
38787;SDS011;24536;45.488;12.238;2023-05-07T08:17:28;1.83;;;1.60;;
38787;SDS011;24536;45.488;12.238;2023-05-07T08:19:54;4.50;;;2.00;;
38787;SDS011;24536;45.488;12.238;2023-05-07T08:22:20;3.25;;;2.00;;
38787;SDS011;24536;45.488;12.238;2023-05-07T08:24:46;3.15;;;2.50;;
38787;SDS011;24536;45.488;12.238;2023-05-07T08:27:12;2.63;;;1.95;;
38787;SDS011;24536;45.488;12.238;2023-05-07T08:29:38;3.90;;;2.20;;
38787;SDS011;24536;45.488;12.238;2023-05-07T08:32:03;2.63;;;1.73;;
38787;SDS011;24536;45.488;12.238;2023-05-07T08:34:29;2.50;;;1.90;;
38787;SDS011;24536;45.488;12.238;2023-05-07T08:36:55;2.15;;;1.95;;
38787;SDS011;24536;45.488;12.238;2023-05-07T08:39:21;3.60;;;2.15;;
38787;SDS011;24536;45.488;12.238;2023-05-07T08:41:47;3.60;;;2.45;;
38787;SDS011;24536;45.488;12.238;2023-05-07T08:44:16;3.13;;;2.00;;
38787;SDS011;24536;45.488;12.238;2023-05-07T08:46:45;3.45;;;2.10;;
38787;SDS011;24536;45.488;12.238;2023-05-07T08:49:13;2.40;;;1.98;;
38787;SDS011;24536;45.488;12.238;2023-05-07T08:51:39;2.38;;;1.90;;
38787;SDS011;24536;45.488;12.238;2023-05-07T08:54:07;2.85;;;2.00;;
38787;SDS011;24536;45.488;12.238;2023-05-07T08:56:34;3.10;;;2.30;;
38787;SDS011;24536;45.488;12.238;2023-05-07T08:58:59;5.03;;;2.35;;
38787;SDS011;24536;45.488;12.238;2023-05-07T09:01:25;2.20;;;1.98;;
38787;SDS011;24536;45.488;12.238;2023-05-07T09:03:51;2.15;;;1.85;;
38787;SDS011;24536;45.488;12.238;2023-05-07T09:06:18;2.60;;;2.30;;
38787;SDS011;24536;45.488;12.238;2023-05-07T09:08:49;3.35;;;1.98;;
38787;SDS011;24536;45.488;12.238;2023-05-07T09:11:16;3.50;;;2.25;;
38787;SDS011;24536;45.488;12.238;2023-05-07T09:13:44;4.03;;;2.10;;
38787;SDS011;24536;45.488;12.238;2023-05-07T09:16:13;4.45;;;2.22;;
38787;SDS011;24536;45.488;12.238;2023-05-07T09:18:42;2.17;;;1.92;;
38787;SDS011;24536;45.488;12.238;2023-05-07T09:21:14;1.73;;;1.63;;
38787;SDS011;24536;45.488;12.238;2023-05-07T09:23:40;4.03;;;1.77;;
38787;SDS011;24536;45.488;12.238;2023-05-07T09:26:06;1.73;;;1.63;;
38787;SDS011;24536;45.488;12.238;2023-05-07T09:28:37;5.00;;;1.30;;
38787;SDS011;24536;45.488;12.238;2023-05-07T09:31:05;2.38;;;1.63;;
38787;SDS011;24536;45.488;12.238;2023-05-07T09:33:31;1.80;;;1.50;;
38787;SDS011;24536;45.488;12.238;2023-05-07T09:35:56;10.55;;;3.30;;
38787;SDS011;24536;45.488;12.238;2023-05-07T09:38:22;7.00;;;2.20;;
38787;SDS011;24536;45.488;12.238;2023-05-07T09:40:53;2.85;;;1.65;;
38787;SDS011;24536;45.488;12.238;2023-05-07T09:43:34;4.57;;;1.60;;
38787;SDS011;24536;45.488;12.238;2023-05-07T09:46:18;1.65;;;1.55;;
38787;SDS011;24536;45.488;12.238;2023-05-07T09:48:50;3.83;;;1.97;;
38787;SDS011;24536;45.488;12.238;2023-05-07T09:53:52;2.85;;;1.70;;
38787;SDS011;24536;45.488;12.238;2023-05-07T09:56:18;2.80;;;1.80;;
38787;SDS011;24536;45.488;12.238;2023-05-07T09:58:45;1.92;;;1.77;;
38787;SDS011;24536;45.488;12.238;2023-05-07T10:01:12;2.75;;;1.63;;
38787;SDS011;24536;45.488;12.238;2023-05-07T10:03:39;2.10;;;1.60;;
38787;SDS011;24536;45.488;12.238;2023-05-07T10:06:07;6.10;;;1.88;;
38787;SDS011;24536;45.488;12.238;2023-05-07T10:08:35;2.25;;;1.80;;
38787;SDS011;24536;45.488;12.238;2023-05-07T10:11:01;2.45;;;1.80;;
38787;SDS011;24536;45.488;12.238;2023-05-07T10:13:32;1.95;;;1.38;;
38787;SDS011;24536;45.488;12.238;2023-05-07T10:16:01;4.13;;;1.52;;
38787;SDS011;24536;45.488;12.238;2023-05-07T10:18:28;1.73;;;1.40;;
38787;SDS011;24536;45.488;12.238;2023-05-07T10:21:04;3.13;;;1.40;;
38787;SDS011;24536;45.488;12.238;2023-05-07T10:23:45;2.22;;;1.58;;
38787;SDS011;24536;45.488;12.238;2023-05-07T10:26:16;3.00;;;1.38;;
38787;SDS011;24536;45.488;12.238;2023-05-07T10:28:46;2.17;;;1.48;;
38787;SDS011;24536;45.488;12.238;2023-05-07T10:33:56;4.25;;;2.05;;
38787;SDS011;24536;45.488;12.238;2023-05-07T10:36:24;2.17;;;1.52;;
38787;SDS011;24536;45.488;12.238;2023-05-07T10:38:51;1.80;;;1.40;;
38787;SDS011;24536;45.488;12.238;2023-05-07T10:41:17;1.67;;;1.58;;
38787;SDS011;24536;45.488;12.238;2023-05-07T10:43:44;2.13;;;1.70;;
38787;SDS011;24536;45.488;12.238;2023-05-07T10:51:28;4.45;;;2.15;;
38787;SDS011;24536;45.488;12.238;2023-05-07T10:56:39;1.98;;;1.15;;
38787;SDS011;24536;45.488;12.238;2023-05-07T11:02:03;2.53;;;1.70;;
38787;SDS011;24536;45.488;12.238;2023-05-07T11:04:31;2.17;;;1.63;;
38787;SDS011;24536;45.488;12.238;2023-05-07T11:15:08;1.30;;;1.17;;
38787;SDS011;24536;45.488;12.238;2023-05-07T11:17:51;1.27;;;1.10;;
38787;SDS011;24536;45.488;12.238;2023-05-07T11:20:18;2.05;;;1.45;;
38787;SDS011;24536;45.488;12.238;2023-05-07T11:22:44;1.85;;;1.48;;
38787;SDS011;24536;45.488;12.238;2023-05-07T11:25:10;2.78;;;1.60;;
38787;SDS011;24536;45.488;12.238;2023-05-07T11:27:41;2.30;;;1.45;;
38787;SDS011;24536;45.488;12.238;2023-05-07T11:30:08;1.52;;;1.10;;
38787;SDS011;24536;45.488;12.238;2023-05-07T11:32:34;2.00;;;1.67;;
38787;SDS011;24536;45.488;12.238;2023-05-07T11:35:00;2.08;;;1.52;;
38787;SDS011;24536;45.488;12.238;2023-05-07T11:37:26;1.40;;;1.30;;
38787;SDS011;24536;45.488;12.238;2023-05-07T11:42:33;2.03;;;1.20;;
38787;SDS011;24536;45.488;12.238;2023-05-07T11:44:59;3.13;;;1.52;;
38787;SDS011;24536;45.488;12.238;2023-05-07T11:47:26;1.27;;;1.17;;
38787;SDS011;24536;45.488;12.238;2023-05-07T11:49:54;1.70;;;1.33;;
38787;SDS011;24536;45.488;12.238;2023-05-07T11:52:21;1.38;;;1.27;;
38787;SDS011;24536;45.488;12.238;2023-05-07T11:54:51;2.22;;;1.40;;
38787;SDS011;24536;45.488;12.238;2023-05-07T11:57:19;3.67;;;1.83;;
38787;SDS011;24536;45.488;12.238;2023-05-07T11:59:46;1.90;;;1.58;;
38787;SDS011;24536;45.488;12.238;2023-05-07T12:02:14;1.60;;;1.40;;
38787;SDS011;24536;45.488;12.238;2023-05-07T12:04:41;3.35;;;1.35;;
38787;SDS011;24536;45.488;12.238;2023-05-07T12:07:13;3.55;;;1.40;;
38787;SDS011;24536;45.488;12.238;2023-05-07T12:09:40;2.05;;;1.80;;
38787;SDS011;24536;45.488;12.238;2023-05-07T12:12:06;1.73;;;1.30;;
38787;SDS011;24536;45.488;12.238;2023-05-07T12:14:32;2.10;;;1.42;;
38787;SDS011;24536;45.488;12.238;2023-05-07T12:17:02;2.90;;;1.52;;
38787;SDS011;24536;45.488;12.238;2023-05-07T12:19:30;2.35;;;1.83;;
38787;SDS011;24536;45.488;12.238;2023-05-07T12:21:56;2.08;;;1.60;;
38787;SDS011;24536;45.488;12.238;2023-05-07T12:24:22;2.45;;;1.33;;
38787;SDS011;24536;45.488;12.238;2023-05-07T12:26:48;2.53;;;1.55;;
38787;SDS011;24536;45.488;12.238;2023-05-07T12:29:14;2.13;;;1.65;;
38787;SDS011;24536;45.488;12.238;2023-05-07T12:31:41;24.55;;;1.80;;
38787;SDS011;24536;45.488;12.238;2023-05-07T12:34:07;1.60;;;1.50;;
38787;SDS011;24536;45.488;12.238;2023-05-07T12:36:36;1.77;;;1.33;;
38787;SDS011;24536;45.488;12.238;2023-05-07T12:39:04;1.42;;;1.20;;
38787;SDS011;24536;45.488;12.238;2023-05-07T12:41:57;2.55;;;1.30;;
38787;SDS011;24536;45.488;12.238;2023-05-07T12:46:55;1.55;;;0.95;;
38787;SDS011;24536;45.488;12.238;2023-05-07T12:49:21;1.40;;;1.23;;
38787;SDS011;24536;45.488;12.238;2023-05-07T12:51:48;1.65;;;1.45;;
38787;SDS011;24536;45.488;12.238;2023-05-07T12:54:27;2.78;;;1.30;;
38787;SDS011;24536;45.488;12.238;2023-05-07T12:57:03;2.75;;;1.45;;
38787;SDS011;24536;45.488;12.238;2023-05-07T12:59:37;1.90;;;1.48;;
38787;SDS011;24536;45.488;12.238;2023-05-07T13:02:04;1.23;;;1.10;;
38787;SDS011;24536;45.488;12.238;2023-05-07T13:04:30;3.00;;;1.63;;
38787;SDS011;24536;45.488;12.238;2023-05-07T13:06:56;3.00;;;1.30;;
38787;SDS011;24536;45.488;12.238;2023-05-07T13:09:23;1.65;;;1.10;;
38787;SDS011;24536;45.488;12.238;2023-05-07T13:11:54;1.00;;;0.80;;
38787;SDS011;24536;45.488;12.238;2023-05-07T13:14:20;1.75;;;1.15;;
38787;SDS011;24536;45.488;12.238;2023-05-07T13:16:46;1.92;;;0.90;;
38787;SDS011;24536;45.488;12.238;2023-05-07T13:19:13;2.75;;;1.38;;
38787;SDS011;24536;45.488;12.238;2023-05-07T13:21:42;7.35;;;1.88;;
38787;SDS011;24536;45.488;12.238;2023-05-07T13:24:08;3.38;;;1.08;;
38787;SDS011;24536;45.488;12.238;2023-05-07T13:26:33;2.42;;;1.50;;
38787;SDS011;24536;45.488;12.238;2023-05-07T13:28:59;1.80;;;1.10;;
38787;SDS011;24536;45.488;12.238;2023-05-07T13:31:25;1.83;;;1.13;;
38787;SDS011;24536;45.488;12.238;2023-05-07T13:33:51;2.08;;;1.67;;
38787;SDS011;24536;45.488;12.238;2023-05-07T13:36:17;3.53;;;1.42;;
38787;SDS011;24536;45.488;12.238;2023-05-07T13:38:43;1.83;;;1.20;;
38787;SDS011;24536;45.488;12.238;2023-05-07T13:41:08;1.67;;;1.10;;
38787;SDS011;24536;45.488;12.238;2023-05-07T13:43:34;2.45;;;1.27;;
38787;SDS011;24536;45.488;12.238;2023-05-07T13:46:00;1.80;;;1.25;;
38787;SDS011;24536;45.488;12.238;2023-05-07T13:52:24;1.77;;;1.10;;
38787;SDS011;24536;45.488;12.238;2023-05-07T13:54:49;1.88;;;1.10;;
38787;SDS011;24536;45.488;12.238;2023-05-07T13:57:18;3.78;;;1.17;;
38787;SDS011;24536;45.488;12.238;2023-05-07T13:59:44;1.25;;;0.88;;
38787;SDS011;24536;45.488;12.238;2023-05-07T14:02:09;1.20;;;1.10;;
38787;SDS011;24536;45.488;12.238;2023-05-07T14:04:35;1.85;;;1.20;;
38787;SDS011;24536;45.488;12.238;2023-05-07T14:07:02;2.08;;;0.90;;
38787;SDS011;24536;45.488;12.238;2023-05-07T14:09:28;1.92;;;1.23;;
38787;SDS011;24536;45.488;12.238;2023-05-07T14:11:53;2.22;;;1.40;;
38787;SDS011;24536;45.488;12.238;2023-05-07T14:14:19;2.30;;;1.60;;
38787;SDS011;24536;45.488;12.238;2023-05-07T14:16:45;2.00;;;1.38;;
38787;SDS011;24536;45.488;12.238;2023-05-07T14:19:11;1.88;;;1.38;;
38787;SDS011;24536;45.488;12.238;2023-05-07T14:21:37;2.03;;;1.38;;
38787;SDS011;24536;45.488;12.238;2023-05-07T14:24:03;1.75;;;1.15;;
38787;SDS011;24536;45.488;12.238;2023-05-07T14:26:29;3.17;;;1.27;;
38787;SDS011;24536;45.488;12.238;2023-05-07T14:28:55;1.10;;;0.95;;
38787;SDS011;24536;45.488;12.238;2023-05-07T14:31:23;1.75;;;1.30;;
38787;SDS011;24536;45.488;12.238;2023-05-07T14:33:49;2.08;;;1.40;;
38787;SDS011;24536;45.488;12.238;2023-05-07T14:36:18;1.70;;;1.52;;
38787;SDS011;24536;45.488;12.238;2023-05-07T14:38:46;1.80;;;1.27;;
38787;SDS011;24536;45.488;12.238;2023-05-07T14:41:12;2.15;;;1.20;;
38787;SDS011;24536;45.488;12.238;2023-05-07T14:43:38;1.98;;;1.40;;
38787;SDS011;24536;45.488;12.238;2023-05-07T14:46:04;2.08;;;1.38;;
38787;SDS011;24536;45.488;12.238;2023-05-07T14:48:31;1.00;;;1.00;;
38787;SDS011;24536;45.488;12.238;2023-05-07T14:51:00;1.73;;;1.33;;
38787;SDS011;24536;45.488;12.238;2023-05-07T14:53:25;1.55;;;1.35;;
38787;SDS011;24536;45.488;12.238;2023-05-07T14:55:51;2.20;;;1.20;;
38787;SDS011;24536;45.488;12.238;2023-05-07T14:58:17;1.15;;;0.90;;
38787;SDS011;24536;45.488;12.238;2023-05-07T15:00:42;1.20;;;1.10;;